Time;durP1;ratioP1;P1;durP2;ratioP2;P2;SDS_P1;SDS_P2;PMS_P1;PMS_P2;Temp;Humidity;BMP_temperature;BMP_pressure;BME280_temperature;BME280_humidity;BME280_pressure;Samples;Min_cycle;Max_cycle;Signal;HPM_P1;HPM_P2
2022/08/12 00:43:16;;;;;;;6.63;3.25;;;;;;;18.52;100.00;101815.13;6540898;22;20440;-85
2022/08/12 00:48:38;;;;;;;5.82;2.80;;;;;;;18.46;100.00;101809.56;6539595;22;20008;-85
2022/08/12 00:51:10;;;;;;;3.90;2.88;;;;;;;18.35;100.00;101802.66;6542088;22;19992;-85
2022/08/12 00:53:42;;;;;;;5.80;2.83;;;;;;;18.43;100.00;101802.66;6541277;22;20112;-84
2022/08/12 00:56:13;;;;;;;6.97;3.00;;;;;;;18.40;100.00;101808.41;6542225;22;20004;-83
2022/08/12 00:58:49;;;;;;;3.97;3.05;;;;;;;18.41;100.00;101798.47;6541610;22;20033;-83
2022/08/12 01:01:21;;;;;;;6.38;2.90;;;;;;;18.47;100.00;101797.75;6541850;22;19996;-84
2022/08/12 01:12:27;;;;;;;5.25;2.65;;;;;;;18.55;100.00;101805.84;6540741;22;20442;-84
2022/08/12 01:15:00;;;;;;;4.85;3.20;;;;;;;18.33;100.00;101793.91;6541298;22;20446;-84
2022/08/12 01:17:33;;;;;;;7.30;3.25;;;;;;;18.49;100.00;101793.03;6540511;22;19996;-84
2022/08/12 01:20:05;;;;;;;4.93;2.92;;;;;;;18.59;100.00;101792.84;6541465;22;20389;-84
2022/08/12 01:22:49;;;;;;;5.38;2.88;;;;;;;18.50;100.00;101786.63;6541002;22;20091;-84
2022/08/12 01:25:23;;;;;;;5.55;2.47;;;;;;;18.42;100.00;101803.66;6514577;22;20422;-84
2022/08/12 01:27:57;;;;;;;6.28;2.45;;;;;;;18.42;100.00;101800.97;6540965;22;20000;-84
2022/08/12 01:30:32;;;;;;;5.72;2.28;;;;;;;18.40;100.00;101803.00;6542024;22;19996;-84
2022/08/12 01:33:12;;;;;;;5.55;2.63;;;;;;;18.35;100.00;101808.06;6542223;22;19998;-84
2022/08/12 01:35:53;;;;;;;2.72;2.45;;;;;;;18.28;100.00;101804.34;6542343;22;20034;-84
2022/08/12 01:38:25;;;;;;;5.57;2.88;;;;;;;18.33;100.00;101786.63;6542339;22;20008;-83
2022/08/12 01:41:00;;;;;;;4.72;2.38;;;;;;;18.52;100.00;101803.50;6515478;22;20056;-84
2022/08/12 01:43:33;;;;;;;3.75;3.03;;;;;;;18.41;100.00;101806.56;6542169;22;20269;-84
2022/08/12 01:46:18;;;;;;;4.32;3.08;;;;;;;18.31;100.00;101801.31;6510172;22;20005;-84
2022/08/12 01:49:14;;;;;;;5.97;3.13;;;;;;;18.35;100.00;101809.94;6510337;22;20000;-84
2022/08/12 01:51:54;;;;;;;7.10;3.15;;;;;;;18.26;100.00;101804.53;6510458;22;19996;-84
2022/08/12 01:54:27;;;;;;;3.80;2.92;;;;;;;18.24;100.00;101798.47;6510234;22;19999;-85
2022/08/12 01:57:12;;;;;;;5.25;3.28;;;;;;;18.15;100.00;101804.88;6510416;22;19993;-85
2022/08/12 01:59:59;;;;;;;9.05;3.22;;;;;;;18.09;100.00;101798.31;6510023;22;19996;-85
2022/08/12 02:02:38;;;;;;;4.40;3.33;;;;;;;18.11;100.00;101795.44;6510243;22;19992;-85
2022/08/12 02:11:34;;;;;;;3.60;3.22;;;;;;;18.06;100.00;101784.31;6510271;22;20001;-84
2022/08/12 02:14:05;;;;;;;3.53;3.00;;;;;;;18.12;100.00;101789.84;6509308;22;20058;-83
2022/08/12 02:16:57;;;;;;;7.13;3.22;;;;;;;17.93;100.00;101782.09;6509985;22;20008;-83
2022/08/12 02:20:20;;;;;;;3.53;2.70;;;;;;;17.92;100.00;101786.66;6506994;22;20084;-82
2022/08/12 02:22:54;;;;;;;8.55;3.50;;;;;;;17.99;100.00;101784.13;6446439;22;20003;-82
2022/08/12 02:25:33;;;;;;;4.70;3.65;;;;;;;18.02;100.00;101789.19;6481733;22;20005;-81
2022/08/12 02:28:05;;;;;;;5.55;3.13;;;;;;;17.98;100.00;101782.44;6507245;22;20315;-81
2022/08/12 02:30:37;;;;;;;6.45;3.42;;;;;;;17.93;100.00;101782.09;6508006;22;19993;-82
2022/08/12 02:33:09;;;;;;;9.43;3.80;;;;;;;17.87;100.00;101777.38;6509412;22;20063;-82
2022/08/12 02:35:41;;;;;;;5.70;3.55;;;;;;;17.77;100.00;101772.94;6508350;22;20009;-82
2022/08/12 02:38:13;;;;;;;7.63;3.67;;;;;;;17.80;100.00;101777.16;6508737;22;20005;-81
2022/08/12 02:40:48;;;;;;;8.05;4.68;;;;;;;17.78;100.00;101779.19;6481852;22;20001;-82
2022/08/12 02:43:34;;;;;;;7.72;4.07;;;;;;;17.80;100.00;101781.72;6509029;22;20483;-81
2022/08/12 02:46:11;;;;;;;7.43;3.65;;;;;;;17.82;100.00;101780.53;6508165;22;20009;-82
2022/08/12 02:48:50;;;;;;;7.40;3.97;;;;;;;17.75;100.00;101768.72;6507982;22;20000;-83
2022/08/12 02:51:26;;;;;;;5.38;4.38;;;;;;;17.71;100.00;101764.69;6507924;22;20027;-83
2022/08/12 02:53:59;;;;;;;;;;;;;;;17.66;100.00;101775.13;6508878;22;20001;-83
2022/08/12 02:56:31;;;;;;;5.47;3.88;;;;;;;17.70;100.00;101781.88;6508374;22;19912;-82
2022/08/12 02:59:05;;;;;;;6.63;4.15;;;;;;;17.68;100.00;101782.03;6509044;22;20003;-82
2022/08/12 03:01:42;;;;;;;5.53;4.10;;;;;;;17.65;100.00;101778.84;6509976;22;20085;-82
2022/08/12 03:04:37;;;;;;;5.80;4.18;;;;;;;17.61;100.00;101781.03;6509487;22;20083;-83
2022/08/12 03:07:13;;;;;;;5.95;4.57;;;;;;;17.58;100.00;101784.03;6482512;22;20043;-83
2022/08/12 03:09:50;;;;;;;;;;;;;;;17.45;100.00;101781.00;6510463;22;20024;-83
2022/08/12 03:12:23;;;;;;;6.47;4.40;;;;;;;17.43;100.00;101775.75;6509945;22;19931;-84
2022/08/12 03:14:57;;;;;;;6.50;4.45;;;;;;;17.37;100.00;101774.56;6509868;22;20004;-84
2022/08/12 03:18:00;;;;;;;5.03;4.53;;;;;;;17.31;100.00;101779.78;6509891;22;19996;-83
2022/08/12 03:20:36;;;;;;;8.73;4.90;;;;;;;17.31;100.00;101767.13;6509310;22;20004;-83
2022/08/12 03:23:10;;;;;;;;;;;;;;;17.19;100.00;101771.13;6484086;22;20165;-83
2022/08/12 03:25:42;;;;;;;6.68;4.55;;;;;;;17.23;100.00;101767.09;6509940;22;19911;-83
2022/08/12 03:28:49;;;;;;;7.95;4.85;;;;;;;17.27;100.00;101776.56;6509473;22;20423;-84
2022/08/12 03:31:09;;;;;;;7.40;5.03;;;;;;;17.25;100.00;101775.03;6509921;22;20143;-84
2022/08/12 03:33:43;;;;;;;8.85;5.03;;;;;;;17.22;100.00;101770.81;6509952;22;20007;-84
2022/08/12 03:36:19;;;;;;;6.38;4.72;;;;;;;17.16;100.00;101764.25;6509736;22;20087;-84
2022/08/12 03:39:19;;;;;;;5.70;5.07;;;;;;;17.09;100.00;101762.34;6509390;22;20407;-84
2022/08/12 03:41:53;;;;;;;5.20;4.70;;;;;;;17.08;100.00;101760.66;6509997;22;20028;-84
2022/08/12 04:01:42;;;;;;;8.40;4.57;;;;;;;16.84;100.00;101773.03;6540556;22;20004;-84
2022/08/12 04:04:14;;;;;;;8.50;5.65;;;;;;;16.81;100.00;101774.16;6541843;22;20070;-84
2022/08/12 04:06:45;;;;;;;8.23;5.93;;;;;;;16.78;100.00;101774.47;6542117;22;20440;-83
2022/08/12 04:09:19;;;;;;;7.15;5.40;;;;;;;16.79;100.00;101780.69;6540592;22;19996;-84
2022/08/12 04:14:41;;;;;;;8.75;6.03;;;;;;;16.62;100.00;101775.25;6541381;22;20378;-84
2022/08/12 04:17:14;;;;;;;9.57;5.88;;;;;;;16.56;100.00;101777.72;6541094;22;20003;-84
2022/08/12 04:19:47;;;;;;;8.18;6.13;;;;;;;16.51;100.00;101786.25;6513972;22;20058;-82
2022/08/12 04:22:21;;;;;;;8.90;6.32;;;;;;;16.48;100.00;101773.13;6540999;22;20402;-82
2022/08/12 04:24:52;;;;;;;9.77;6.10;;;;;;;16.59;100.00;101785.50;6540901;22;20003;-83
2022/08/12 04:27:24;;;;;;;8.52;6.10;;;;;;;16.58;100.00;101783.78;6540578;22;20371;-82
2022/08/12 04:29:57;;;;;;;8.18;5.90;;;;;;;16.56;100.00;101772.34;6541871;22;20000;-83
2022/08/12 04:32:29;;;;;;;7.78;6.28;;;;;;;16.52;100.00;101773.66;6514604;22;20390;-83
2022/08/12 04:35:02;;;;;;;12.18;6.78;;;;;;;16.55;100.00;101776.88;6542341;22;20084;-83
2022/08/12 04:37:34;;;;;;;8.77;6.53;;;;;;;16.54;100.00;101779.72;6540890;22;20050;-83
2022/08/12 04:40:10;;;;;;;11.27;7.30;;;;;;;16.54;100.00;101788.66;6542178;22;20406;-82
2022/08/12 04:42:41;;;;;;;12.23;7.25;;;;;;;16.53;100.00;101780.72;6514695;22;19999;-82
2022/08/12 04:45:12;;;;;;;12.40;7.03;;;;;;;16.50;100.00;101770.28;6540589;22;20012;-83
2022/08/12 04:47:44;;;;;;;10.45;7.00;;;;;;;16.54;100.00;101785.13;6541470;22;20004;-83
2022/08/12 04:50:17;;;;;;;8.77;6.85;;;;;;;16.54;100.00;101775.19;6514386;22;20461;-83
2022/08/12 04:52:49;;;;;;;8.68;6.90;;;;;;;16.57;100.00;101782.94;6514776;22;20023;-83
2022/08/12 04:55:22;;;;;;;11.63;7.57;;;;;;;16.58;100.00;101773.84;6514358;22;20335;-83
2022/08/12 04:57:54;;;;;;;9.68;7.63;;;;;;;16.60;100.00;101781.78;6514007;22;20024;-83
2022/08/12 05:00:26;;;;;;;9.23;7.18;;;;;;;16.68;100.00;101789.91;6513436;22;20000;-82
2022/08/12 05:02:57;;;;;;;11.95;7.05;;;;;;;16.67;100.00;101782.81;6541265;22;20082;-82
2022/08/12 05:05:31;;;;;;;9.18;6.72;;;;;;;16.71;100.00;101780.69;6514839;22;20007;-82
2022/08/12 05:08:05;;;;;;;9.70;7.60;;;;;;;16.74;100.00;101783.03;6540332;22;19996;-82
2022/08/12 05:10:36;;;;;;;10.23;7.45;;;;;;;16.75;100.00;101776.66;6541526;22;20103;-83
2022/08/12 05:13:13;;;;;;;10.93;7.07;;;;;;;16.77;100.00;101775.47;6541096;22;20268;-83
2022/08/12 05:15:45;;;;;;;15.68;7.78;;;;;;;16.81;100.00;101781.38;6541467;22;20000;-82
2022/08/12 05:18:16;;;;;;;11.35;8.40;;;;;;;16.88;100.00;101781.63;6541584;22;20003;-83
2022/08/12 05:20:48;;;;;;;10.50;7.65;;;;;;;16.91;100.00;101774.06;6541425;22;20004;-82
2022/08/12 05:23:21;;;;;;;12.88;7.95;;;;;;;17.07;100.00;101783.22;6540641;22;19992;-83
2022/08/12 05:25:55;;;;;;;15.68;7.75;;;;;;;17.19;100.00;101765.75;6541286;22;19996;-82
2022/08/12 05:28:29;;;;;;;11.60;7.85;;;;;;;17.43;100.00;101783.84;6513383;22;20000;-82
2022/08/12 05:31:00;;;;;;;12.57;7.53;;;;;;;17.73;100.00;101789.66;6541183;22;20071;-82
2022/08/12 05:33:39;;;;;;;12.25;7.50;;;;;;;17.89;100.00;101794.25;6540162;22;20028;-82
2022/08/12 05:36:13;;;;;;;8.65;7.53;;;;;;;18.03;100.00;101796.28;6540738;22;20028;-82
2022/08/12 05:38:55;;;;;;;15.95;8.13;;;;;;;18.33;100.00;101797.44;6513837;22;20342;-82
2022/08/12 05:41:28;;;;;;;13.10;7.40;;;;;;;18.60;100.00;101795.38;6540886;22;19989;-83
2022/08/12 05:44:03;;;;;;;9.77;7.32;;;;;;;18.82;100.00;101801.94;6540975;22;20352;-83
2022/08/12 05:46:36;;;;;;;12.82;7.63;;;;;;;18.97;100.00;101804.75;6540816;22;20423;-83
2022/08/12 05:49:08;;;;;;;13.02;7.50;;;;;;;19.24;100.00;101798.03;6540851;22;19997;-83
2022/08/12 05:51:39;;;;;;;10.25;7.55;;;;;;;19.55;100.00;101804.50;6513980;22;20011;-83
2022/08/12 05:54:10;;;;;;;12.55;7.93;;;;;;;19.69;100.00;101806.44;6541611;22;19996;-82
2022/08/12 05:56:42;;;;;;;12.77;7.25;;;;;;;19.99;100.00;101802.00;6540964;22;20015;-83
2022/08/12 05:59:13;;;;;;;10.35;7.40;;;;;;;20.21;100.00;101804.84;6513671;22;20054;-82
2022/08/12 06:01:45;;;;;;;14.77;6.75;;;;;;;20.36;100.00;101802.19;6540875;22;20000;-84
2022/08/12 06:04:16;;;;;;;11.50;6.93;;;;;;;20.61;100.00;101797.34;6541496;22;19996;-83
2022/08/12 06:06:51;;;;;;;10.32;7.25;;;;;;;20.73;100.00;101793.19;6541324;22;20063;-83
2022/08/12 06:09:25;;;;;;;12.02;7.35;;;;;;;21.19;100.00;101810.28;6513786;22;20011;-83
2022/08/12 06:11:56;;;;;;;9.90;6.78;;;;;;;21.29;100.00;101806.22;6513489;22;20079;-82
2022/08/12 06:14:28;;;;;;;12.65;6.53;;;;;;;21.62;100.00;101813.13;6512489;22;20079;-83
2022/08/12 06:16:59;;;;;;;11.93;6.50;;;;;;;21.85;100.00;101811.06;6513264;22;19993;-83
2022/08/12 06:19:31;;;;;;;10.88;6.65;;;;;;;22.03;100.00;101810.59;6512945;22;20074;-83
2022/08/12 06:22:02;;;;;;;12.38;6.20;;;;;;;22.46;100.00;101818.72;6539671;22;20473;-83
2022/08/12 06:24:34;;;;;;;10.10;6.97;;;;;;;22.66;100.00;101813.41;6512653;22;20001;-82
2022/08/12 06:27:05;;;;;;;13.48;6.70;;;;;;;23.11;100.00;101804.09;6540354;22;20051;-82
2022/08/12 06:29:37;;;;;;;7.97;5.95;;;;;;;23.39;100.00;101807.53;6540019;22;19996;-82
2022/08/12 06:32:08;;;;;;;9.35;6.45;;;;;;;23.65;100.00;101805.94;6512611;22;20363;-83
2022/08/12 06:34:39;;;;;;;11.00;6.25;;;;;;;24.05;100.00;101797.81;6512250;22;20080;-83
2022/08/12 06:37:11;;;;;;;7.93;6.00;;;;;;;24.27;100.00;101800.34;6540370;22;20331;-83
2022/08/12 06:39:42;;;;;;;14.63;6.40;;;;;;;24.67;100.00;101797.63;6511860;22;20077;-83
2022/08/12 06:45:05;;;;;;;11.55;6.70;;;;;;;25.07;100.00;101800.19;6538363;22;20016;-83
2022/08/12 06:47:36;;;;;;;14.45;6.97;;;;;;;25.11;100.00;101793.28;6539294;22;20087;-83
2022/08/12 06:50:10;;;;;;;10.27;5.95;;;;;;;25.49;100.00;101800.69;6539222;22;20098;-83
2022/08/12 06:52:43;;;;;;;8.70;5.60;;;;;;;26.22;100.00;101796.59;6511676;22;19992;-82
2022/08/12 06:55:19;;;;;;;11.50;5.70;;;;;;;26.33;100.00;101792.28;6540559;22;20087;-82
2022/08/12 06:57:57;;;;;;;12.60;5.00;;;;;;;26.72;100.00;101799.31;6539626;22;19999;-83
2022/08/12 07:00:32;;;;;;;11.00;5.32;;;;;;;26.85;99.27;101795.56;6511802;22;20054;-82
2022/08/12 07:03:04;;;;;;;9.02;5.07;;;;;;;27.35;95.72;101794.56;6540126;22;19996;-81
2022/08/12 07:05:36;;;;;;;9.43;4.97;;;;;;;27.59;93.95;101791.91;6540896;22;19999;-82
2022/08/12 07:08:08;;;;;;;12.05;5.35;;;;;;;27.49;92.48;101782.34;6540808;22;20050;-82
2022/08/12 07:10:42;;;;;;;9.88;5.35;;;;;;;27.85;90.47;101793.41;6513478;22;20007;-82
2022/08/12 07:13:14;;;;;;;8.88;5.10;;;;;;;27.67;87.71;101792.41;6539159;22;20004;-83
2022/08/12 07:15:45;;;;;;;12.77;5.43;;;;;;;28.38;87.23;101784.28;6538397;22;20335;-81
2022/08/12 07:18:18;;;;;;;9.95;5.13;;;;;;;29.15;85.09;101798.88;6535453;22;19997;-83
2022/08/12 07:20:49;;;;;;;11.00;5.15;;;;;;;29.09;80.24;101792.44;6533201;22;20415;-83
2022/08/12 07:23:21;;;;;;;9.63;4.90;;;;;;;29.82;74.73;101792.75;6533685;22;20055;-83
2022/08/12 07:25:53;;;;;;;8.93;4.95;;;;;;;29.69;72.26;101799.38;6535958;22;20228;-83
2022/08/12 07:28:28;;;;;;;11.07;4.10;;;;;;;30.86;61.66;101801.50;6535114;22;20390;-83
2022/08/12 07:31:06;;;;;;;8.38;3.50;;;;;;;30.42;58.52;101804.16;6511106;22;20000;-83
2022/08/12 07:33:40;;;;;;;14.27;4.45;;;;;;;31.13;58.29;101809.00;6537324;22;20053;-83
2022/08/12 07:36:13;;;;;;;7.18;3.63;;;;;;;31.74;55.12;101803.34;6536924;22;20127;-83
2022/08/12 07:38:47;;;;;;;11.65;3.50;;;;;;;32.36;50.10;101805.47;6535670;22;20008;-82
2022/08/12 07:41:25;;;;;;;9.27;3.80;;;;;;;31.38;51.83;101811.19;6537513;22;20072;-83
2022/08/12 07:43:59;;;;;;;7.00;4.03;;;;;;;33.13;47.76;101816.97;6536256;22;20008;-83
2022/08/12 07:46:41;;;;;;;5.80;3.07;;;;;;;33.68;44.10;101809.09;6539191;22;19996;-83
2022/08/12 07:49:14;;;;;;;7.10;3.00;;;;;;;33.99;40.04;101805.50;6538457;22;20223;-83
2022/08/12 07:51:46;;;;;;;6.85;2.70;;;;;;;34.29;38.12;101807.44;6537352;22;20430;-82
2022/08/12 07:54:18;;;;;;;6.32;2.90;;;;;;;34.21;39.19;101803.31;6537662;22;20000;-82
2022/08/12 07:56:49;;;;;;;6.43;3.00;;;;;;;34.62;37.12;101803.19;6538992;22;20007;-83
2022/08/12 07:59:22;;;;;;;8.60;2.90;;;;;;;34.24;37.57;101805.53;6512487;22;20000;-81
2022/08/12 08:01:59;;;;;;;5.60;2.60;;;;;;;34.67;35.72;101808.72;6539405;22;20215;-81
2022/08/12 08:07:22;;;;;;;8.30;3.00;;;;;;;35.19;33.28;101812.13;6539419;22;20389;-81
2022/08/12 08:09:56;;;;;;;5.65;2.88;;;;;;;35.57;33.62;101820.81;6539150;22;20008;-81
2022/08/12 08:15:21;;;;;;;4.38;2.80;;;;;;;35.41;32.34;101813.69;6539374;22;20008;-81
2022/08/12 08:18:01;;;;;;;6.67;2.87;;;;;;;36.50;30.97;101826.41;6511801;22;20075;-81
2022/08/12 08:20:38;;;;;;;8.98;3.10;;;;;;;36.37;32.02;101823.50;6538607;22;20667;-81
2022/08/12 08:23:15;;;;;;;9.02;2.80;;;;;;;37.14;30.32;101822.59;6539198;22;20070;-81
2022/08/12 08:25:48;;;;;;;7.68;2.60;;;;;;;37.78;29.36;101820.25;6538200;22;20542;-81
2022/08/12 08:28:20;;;;;;;10.93;2.70;;;;;;;38.20;29.55;101826.81;6538082;22;20000;-81
2022/08/12 08:30:52;;;;;;;9.85;2.78;;;;;;;38.13;27.83;101830.00;6539031;22;20007;-81
2022/08/12 08:33:23;;;;;;;6.72;2.60;;;;;;;38.70;26.84;101821.41;6539641;22;20001;-81
2022/08/12 08:35:55;;;;;;;8.10;2.75;;;;;;;39.18;26.22;101819.28;6537653;22;20008;-81
2022/08/12 08:38:26;;;;;;;8.80;2.60;;;;;;;39.16;26.37;101816.00;6538182;22;20002;-81
2022/08/12 08:43:48;;;;;;;6.57;2.30;;;;;;;40.02;24.41;101826.22;6536815;22;20079;-81
2022/08/12 08:46:21;;;;;;;9.20;2.40;;;;;;;40.02;24.16;101826.22;6510800;22;20070;-81
2022/08/12 08:48:53;;;;;;;7.07;2.45;;;;;;;40.30;24.00;101818.47;6538879;22;20234;-81
2022/08/12 08:51:25;;;;;;;7.70;2.45;;;;;;;40.84;22.95;101823.16;6539779;22;20422;-81
2022/08/12 08:53:56;;;;;;;9.57;3.00;;;;;;;42.15;23.08;101831.56;6511655;22;20000;-82
2022/08/12 08:56:30;;;;;;;9.23;2.30;;;;;;;41.88;21.99;101830.78;6539348;22;20461;-81
2022/08/12 08:59:02;;;;;;;7.15;2.78;;;;;;;41.37;22.23;101822.09;6538629;22;19996;-82
2022/08/12 09:01:33;;;;;;;4.25;2.03;;;;;;;41.44;21.52;101813.19;6538784;22;20004;-82
2022/08/12 09:04:05;;;;;;;9.15;2.40;;;;;;;42.35;20.89;101822.41;6511746;22;20006;-81
2022/08/12 09:06:38;;;;;;;4.55;2.10;;;;;;;42.82;20.36;101818.75;6540018;22;20055;-82
2022/08/12 09:09:10;;;;;;;6.18;2.20;;;;;;;42.55;21.02;101815.25;6538450;22;20045;-81
2022/08/12 09:14:32;;;;;;;6.85;2.35;;;;;;;43.47;19.78;101808.03;6536969;22;20008;-82
2022/08/12 09:17:04;;;;;;;5.07;2.05;;;;;;;43.70;19.67;101814.09;6537364;22;20924;-81
2022/08/12 09:19:36;;;;;;;4.30;2.08;;;;;;;44.39;20.34;101814.47;6537199;22;19996;-82
2022/08/12 09:22:07;;;;;;;8.50;2.22;;;;;;;44.93;19.21;101813.41;6537550;22;20443;-82
2022/08/12 09:24:39;;;;;;;11.40;1.97;;;;;;;46.08;17.68;101813.03;6538106;22;20000;-82
2022/08/12 09:27:15;;;;;;;6.43;2.22;;;;;;;45.44;17.38;101810.09;6512780;22;20471;-82
2022/08/12 09:29:46;;;;;;;6.13;1.88;;;;;;;45.72;17.30;101809.28;6538255;22;20058;-81
2022/08/12 09:32:17;;;;;;;4.53;2.27;;;;;;;45.89;17.08;101805.31;6539633;22;19996;-81
2022/08/12 09:34:48;;;;;;;7.37;1.77;;;;;;;45.42;17.00;101804.03;6512283;22;20230;-81
2022/08/12 09:37:20;;;;;;;6.03;1.60;;;;;;;45.91;16.74;101795.31;6539737;22;20273;-81
2022/08/12 09:39:52;;;;;;;7.80;2.10;;;;;;;47.56;16.03;101803.13;6538934;22;28553;-80
2022/08/12 09:45:21;;;;;;;5.25;1.70;;;;;;;46.88;15.29;101796.88;6539087;22;20099;-81
2022/08/12 09:47:53;;;;;;;5.50;2.28;;;;;;;46.76;15.22;101783.69;6512661;22;20544;-81
2022/08/12 09:50:25;;;;;;;5.97;2.00;;;;;;;47.67;15.26;101787.22;6537841;22;20000;-81
2022/08/12 09:53:24;;;;;;;7.53;2.00;;;;;;;48.46;14.15;101791.38;6539092;22;19989;-81
2022/08/12 09:55:56;;;;;;;6.07;1.88;;;;;;;47.57;14.69;101784.97;6536066;22;20016;-81
2022/08/12 09:58:28;;;;;;;2.83;1.88;;;;;;;46.98;14.97;101783.00;6538540;22;20075;-82
2022/08/12 10:01:05;;;;;;;3.63;1.85;;;;;;;47.92;14.47;101784.84;6539177;22;20032;-81
2022/08/12 10:03:38;;;;;;;8.35;2.67;;;;;;;47.82;14.26;101779.81;6538982;22;20011;-81
2022/08/12 10:06:10;;;;;;;7.68;1.83;;;;;;;47.84;14.18;101768.94;6540203;22;19993;-81
2022/08/12 10:08:43;;;;;;;7.43;2.42;;;;;;;46.92;14.54;101767.56;6510170;22;20007;-81
2022/08/12 10:14:04;;;;;;;4.10;1.50;;;;;;;47.25;13.76;101776.69;6538551;22;20000;-81
2022/08/12 10:16:42;;;;;;;5.87;1.87;;;;;;;47.27;13.36;101777.16;6538818;22;20343;-81
2022/08/12 10:19:15;;;;;;;4.32;1.70;;;;;;;46.97;13.92;101769.25;6539080;22;20212;-82
2022/08/12 10:21:46;;;;;;;2.38;1.48;;;;;;;47.40;13.04;101763.69;6539611;22;19998;-81
2022/08/12 10:24:22;;;;;;;5.87;1.80;;;;;;;47.30;13.87;101753.81;6538903;22;19996;-81
2022/08/12 10:29:46;;;;;;;3.88;1.50;;;;;;;47.15;13.41;101750.69;6536784;22;20079;-81
2022/08/12 10:32:20;;;;;;;4.40;1.60;;;;;;;47.42;13.29;101750.81;6507843;22;20595;-81
2022/08/12 10:34:51;;;;;;;6.05;1.73;;;;;;;48.09;12.73;101747.59;6534324;22;19997;-81
2022/08/12 10:37:22;;;;;;;8.80;1.70;;;;;;;47.26;13.43;101745.28;6539421;22;20079;-81
2022/08/12 10:39:54;;;;;;;3.67;1.67;;;;;;;45.94;13.88;101738.22;6514174;22;20004;-81
2022/08/12 10:45:16;;;;;;;4.35;1.73;;;;;;;45.85;13.94;101726.34;6540296;22;20020;-81
2022/08/12 10:47:49;;;;;;;7.45;2.40;;;;;;;46.32;14.04;101733.91;6514355;22;20082;-82
2022/08/12 10:50:21;;;;;;;6.95;1.67;;;;;;;46.94;14.02;101727.69;6540844;22;20064;-81
2022/08/12 10:52:52;;;;;;;5.70;1.42;;;;;;;47.34;13.72;101720.81;6514413;22;20000;-82
2022/08/12 10:55:23;;;;;;;5.10;1.73;;;;;;;47.12;13.54;101719.56;6540721;22;20903;-82
2022/08/12 10:57:55;;;;;;;6.32;1.88;;;;;;;46.69;13.30;101710.19;6540329;22;20045;-82
2022/08/12 11:00:26;;;;;;;3.87;1.40;;;;;;;46.28;13.36;101721.75;6540940;22;20007;-82
2022/08/12 11:02:57;;;;;;;4.80;1.60;;;;;;;46.57;13.75;101719.63;6540833;22;20001;-82
2022/08/12 11:05:33;;;;;;;4.97;1.70;;;;;;;46.26;14.29;101718.47;6540621;22;20079;-82
2022/08/12 11:08:07;;;;;;;3.65;2.05;;;;;;;46.62;13.66;101705.19;6543844;22;20129;-82
2022/08/12 11:10:38;;;;;;;6.65;1.88;;;;;;;47.31;13.30;101698.97;6549720;22;20046;-82
2022/08/12 11:13:10;;;;;;;4.13;1.60;;;;;;;47.94;13.18;101700.47;6529492;22;20001;-82
2022/08/12 11:15:41;;;;;;;6.18;1.60;;;;;;;47.60;12.90;101697.44;6561792;22;20007;-82
2022/08/12 11:18:13;;;;;;;6.33;1.80;;;;;;;47.47;12.95;101702.50;6551703;22;20056;-82
2022/08/12 11:20:46;;;;;;;6.20;2.15;;;;;;;46.38;13.76;101700.63;6545401;22;20270;-82
2022/08/12 11:23:17;;;;;;;8.57;1.80;;;;;;;46.14;14.07;101705.31;6544744;22;20078;-82
2022/08/12 11:25:49;;;;;;;7.30;2.03;;;;;;;46.95;13.34;101679.34;6542540;22;20142;-83
2022/08/12 11:28:20;;;;;;;4.18;1.83;;;;;;;47.63;13.03;101676.97;6515541;22;20250;-82
2022/08/12 11:30:51;;;;;;;4.73;1.67;;;;;;;48.04;12.99;101694.22;6541091;22;20480;-82
2022/08/12 11:33:23;;;;;;;5.80;1.80;;;;;;;47.75;13.14;101686.44;6514304;22;20199;-82
2022/08/12 11:36:03;;;;;;;6.93;1.70;;;;;;;48.27;12.74;101680.00;6512549;22;20334;-83
2022/08/12 11:38:34;;;;;;;3.55;1.73;;;;;;;47.28;13.36;101677.94;6513279;22;20000;-83
2022/08/12 11:41:06;;;;;;;7.72;1.88;;;;;;;46.60;13.45;101679.38;6513589;22;20016;-83
2022/08/12 11:43:37;;;;;;;6.00;1.73;;;;;;;46.47;13.45;101673.03;6539983;22;20103;-82
2022/08/12 11:46:08;;;;;;;7.37;2.20;;;;;;;46.87;14.11;101659.81;6512141;22;19996;-83
2022/08/12 11:48:40;;;;;;;6.60;1.98;;;;;;;47.12;13.43;101658.25;6512915;22;20680;-83
2022/08/12 11:51:11;;;;;;;7.97;1.70;;;;;;;47.71;13.06;101656.13;6539686;22;19999;-82
2022/08/12 11:53:43;;;;;;;5.18;1.95;;;;;;;46.99;13.06;101656.81;6512419;22;20010;-83
2022/08/12 11:56:14;;;;;;;2.47;1.50;;;;;;;46.47;13.65;101672.22;6539020;22;20004;-83
2022/08/12 11:58:45;;;;;;;3.63;1.47;;;;;;;46.69;13.44;101657.41;6512233;22;19997;-83
2022/08/12 12:01:17;;;;;;;3.15;1.63;;;;;;;46.40;13.59;101653.13;6540505;22;20223;-83
2022/08/12 12:03:48;;;;;;;3.47;1.60;;;;;;;46.30;13.77;101653.72;6540150;22;20046;-83
2022/08/12 12:06:20;;;;;;;4.68;1.60;;;;;;;45.75;13.86;101653.63;6512387;22;19996;-83
2022/08/12 12:08:51;;;;;;;3.90;1.90;;;;;;;46.08;13.71;101649.56;6512518;22;20461;-83
2022/08/12 12:11:23;;;;;;;7.53;1.75;;;;;;;46.69;13.83;101634.84;6539340;22;19996;-83
2022/08/12 12:13:54;;;;;;;5.15;1.70;;;;;;;46.71;13.26;101635.28;6513114;22;20426;-83
2022/08/12 12:16:26;;;;;;;8.93;2.30;;;;;;;47.20;13.42;101639.47;6513282;22;20342;-82
2022/08/12 12:18:57;;;;;;;4.75;1.77;;;;;;;47.33;12.81;101631.63;6539859;22;19996;-83
2022/08/12 12:21:28;;;;;;;3.45;1.52;;;;;;;46.53;13.10;101636.91;6512277;22;20050;-83
2022/08/12 12:24:03;;;;;;;5.20;1.60;;;;;;;46.79;13.28;101628.56;6538437;22;20028;-82
2022/08/12 12:26:34;;;;;;;5.03;1.80;;;;;;;46.62;13.10;101631.03;6539883;22;20404;-82
2022/08/12 12:29:06;;;;;;;4.93;1.42;;;;;;;47.10;12.72;101623.94;6538502;22;20004;-82
2022/08/12 12:31:37;;;;;;;3.33;1.50;;;;;;;46.91;13.19;101638.09;6538227;22;20498;-81
2022/08/12 12:34:08;;;;;;;7.88;1.67;;;;;;;47.28;12.80;101627.13;6512359;22;20007;-82
2022/08/12 12:36:40;;;;;;;7.10;1.87;;;;;;;46.61;12.93;101624.59;6539041;22;20027;-82
2022/08/12 12:39:11;;;;;;;4.65;1.65;;;;;;;46.95;12.77;101619.22;6511681;22;20223;-82
2022/08/12 12:41:42;;;;;;;4.70;1.80;;;;;;;46.97;13.09;101608.38;6512049;22;20085;-81
2022/08/12 12:44:13;;;;;;;6.17;1.50;;;;;;;47.80;13.15;101629.59;6511673;22;20019;-82
2022/08/12 12:46:45;;;;;;;3.53;1.70;;;;;;;48.07;12.36;101611.44;6538409;22;20554;-81
2022/08/12 12:49:16;;;;;;;4.87;1.50;;;;;;;48.53;12.21;101621.75;6512268;22;20000;-82
2022/08/12 12:51:48;;;;;;;3.08;1.73;;;;;;;48.12;12.00;101618.78;6539411;22;20234;-82
2022/08/12 12:54:19;;;;;;;4.28;1.85;;;;;;;47.94;12.42;101606.38;6539239;22;20423;-82
2022/08/12 12:56:53;;;;;;;4.88;1.60;;;;;;;48.72;12.24;101603.81;6511738;22;20437;-82
2022/08/12 12:59:27;;;;;;;5.28;1.67;;;;;;;48.60;12.37;101610.53;6541076;22;20058;-82
2022/08/12 13:02:03;;;;;;;;;;;;;;;52.08;11.23;101606.84;6543204;22;20039;-82
2022/08/12 13:04:35;;;;;;;5.00;2.15;;;;;;;48.68;12.49;101608.59;6541483;22;19910;-82
2022/08/12 13:07:06;;;;;;;7.82;1.98;;;;;;;48.44;12.94;101590.94;6513651;22;20000;-82
2022/08/12 13:09:38;;;;;;;4.30;2.00;;;;;;;48.76;12.50;101586.84;6514670;22;20047;-82
2022/08/12 13:12:09;;;;;;;8.60;2.13;;;;;;;48.26;12.45;101584.22;6514452;22;20004;-82
2022/08/12 13:14:40;;;;;;;9.52;2.22;;;;;;;50.09;11.60;101587.94;6540456;22;20054;-82
2022/08/12 13:17:16;;;;;;;9.65;2.20;;;;;;;50.70;12.02;101591.84;6541550;22;20000;-82
2022/08/12 13:19:47;;;;;;;4.35;2.20;;;;;;;48.45;12.57;101578.41;6513449;22;20028;-82
2022/08/12 13:22:18;;;;;;;7.80;3.00;;;;;;;48.59;12.56;101583.44;6541002;22;19992;-82
2022/08/12 13:24:52;;;;;;;14.07;2.23;;;;;;;48.35;12.52;101578.31;6541069;22;20000;-82
2022/08/12 13:27:35;;;;;;;14.68;3.33;;;;;;;47.96;13.22;101584.22;6541657;22;20208;-82
2022/08/12 13:30:10;;;;;;;3.40;2.45;;;;;;;48.13;12.82;101580.84;6539727;22;20000;-81
2022/08/12 13:32:45;;;;;;;7.68;2.60;;;;;;;47.30;13.11;101578.72;6539526;22;20050;-82
2022/08/12 13:35:16;;;;;;;9.35;2.05;;;;;;;46.57;13.49;101572.94;6513112;22;20008;-82
2022/08/12 13:37:59;;;;;;;6.60;2.60;;;;;;;46.67;13.47;101568.69;6536701;22;20079;-82